createdAt,value
2018-06-24T00:00:58.713Z,4.27
2018-06-24T00:03:27.050Z,4.47
2018-06-24T00:05:55.335Z,4.30
2018-06-24T00:08:23.585Z,3.87
2018-06-24T00:10:51.921Z,3.83
2018-06-24T00:13:20.164Z,4.17
2018-06-24T00:15:48.394Z,4.70
2018-06-24T00:18:16.663Z,4.97
2018-06-24T00:20:44.866Z,4.57
2018-06-24T00:23:13.085Z,4.73
2018-06-24T00:25:41.329Z,4.83
2018-06-24T00:28:09.563Z,5.03
2018-06-24T00:30:37.805Z,6.10
2018-06-24T00:33:06.038Z,5.23
2018-06-24T00:35:34.406Z,5.53
2018-06-24T00:38:02.660Z,5.17
2018-06-24T00:40:30.891Z,5.10
2018-06-24T00:42:59.174Z,5.00
2018-06-24T00:45:27.466Z,4.93
2018-06-24T00:47:55.682Z,4.27
2018-06-24T00:50:23.908Z,4.83
2018-06-24T00:52:52.135Z,4.50
2018-06-24T00:55:20.388Z,4.70
2018-06-24T00:57:48.623Z,5.00
2018-06-24T01:00:18.101Z,4.53
2018-06-24T01:02:46.316Z,4.03
2018-06-24T01:05:14.962Z,4.57
2018-06-24T01:07:44.492Z,4.37
2018-06-24T01:10:12.711Z,5.07
2018-06-24T01:12:41.451Z,4.60
2018-06-24T01:15:09.833Z,3.90
2018-06-24T01:17:38.128Z,4.00
2018-06-24T01:20:06.560Z,4.40
2018-06-24T01:22:34.843Z,4.30
2018-06-24T01:25:03.104Z,3.90
2018-06-24T01:27:31.312Z,3.53
2018-06-24T01:29:59.622Z,4.90
2018-06-24T01:32:27.834Z,5.10
2018-06-24T01:34:56.089Z,4.83
2018-06-24T01:37:24.337Z,4.77
2018-06-24T01:39:52.579Z,5.10
2018-06-24T01:42:20.818Z,4.80
2018-06-24T01:44:49.040Z,4.77
2018-06-24T01:47:17.283Z,5.07
2018-06-24T01:49:45.518Z,4.67
2018-06-24T01:52:13.740Z,5.80
2018-06-24T01:54:41.979Z,4.80
2018-06-24T01:57:10.204Z,5.30
2018-06-24T01:59:38.455Z,6.00
2018-06-24T02:02:06.733Z,5.20
2018-06-24T02:04:34.997Z,5.90
2018-06-24T02:07:03.272Z,5.87
2018-06-24T02:09:31.475Z,5.77
2018-06-24T02:11:59.723Z,5.40
2018-06-24T02:14:27.961Z,5.50
2018-06-24T02:16:56.186Z,5.90
2018-06-24T02:19:24.418Z,5.27
2018-06-24T02:21:52.634Z,4.77
2018-06-24T02:24:20.854Z,5.23
2018-06-24T02:26:49.125Z,5.27
2018-06-24T02:29:17.365Z,5.20
2018-06-24T02:31:45.622Z,6.10
2018-06-24T02:34:13.875Z,5.23
2018-06-24T02:36:42.087Z,5.77
2018-06-24T02:39:11.088Z,5.53
2018-06-24T02:41:39.359Z,5.23
2018-06-24T02:44:07.689Z,5.40
2018-06-24T02:46:35.940Z,6.07
2018-06-24T02:49:04.206Z,5.60
2018-06-24T02:51:32.445Z,5.97
2018-06-24T02:54:00.668Z,5.63
2018-06-24T02:56:28.886Z,5.93
2018-06-24T02:58:56.857Z,6.07
2018-06-24T03:01:25.088Z,5.63
2018-06-24T03:03:53.318Z,6.30
2018-06-24T03:06:21.577Z,5.30
2018-06-24T03:08:49.814Z,5.87
2018-06-24T03:11:17.822Z,5.57
2018-06-24T03:13:46.036Z,5.90
2018-06-24T03:16:14.259Z,6.30
2018-06-24T03:18:42.487Z,6.53
2018-06-24T03:21:10.718Z,5.90
2018-06-24T03:23:38.939Z,6.30
2018-06-24T03:26:06.903Z,6.00
2018-06-24T03:28:35.143Z,5.83
2018-06-24T03:31:03.388Z,6.30
2018-06-24T03:33:31.663Z,6.70
2018-06-24T03:35:59.892Z,6.70
2018-06-24T03:38:28.131Z,7.00
2018-06-24T03:40:56.409Z,7.10
2018-06-24T03:43:24.645Z,7.17
2018-06-24T03:45:52.922Z,6.80
2018-06-24T03:48:21.173Z,7.20
2018-06-24T03:50:49.418Z,6.90
2018-06-24T03:53:17.669Z,6.95
2018-06-24T03:55:45.948Z,6.77
2018-06-24T03:58:14.192Z,6.92
2018-06-24T04:00:42.446Z,6.90
2018-06-24T04:03:10.737Z,6.83
2018-06-24T04:05:39.079Z,7.25
2018-06-24T04:08:07.390Z,6.70
2018-06-24T04:10:35.608Z,6.80
2018-06-24T04:13:03.843Z,6.90
2018-06-24T04:15:32.070Z,6.70
2018-06-24T04:18:00.326Z,6.47
2018-06-24T04:20:28.573Z,6.25
2018-06-24T04:22:56.829Z,5.83
2018-06-24T04:25:25.052Z,5.95
2018-06-24T04:27:53.295Z,6.50
2018-06-24T04:30:21.562Z,6.10
2018-06-24T04:32:49.811Z,6.40
2018-06-24T04:35:18.058Z,5.92
2018-06-24T04:37:46.315Z,6.00
2018-06-24T04:40:14.539Z,6.30
2018-06-24T04:42:42.746Z,5.70
2018-06-24T04:45:11.005Z,6.30
2018-06-24T04:47:39.296Z,6.10
2018-06-24T04:50:07.619Z,6.00
2018-06-24T04:52:35.903Z,5.83
2018-06-24T04:55:04.165Z,6.23
2018-06-24T04:57:32.438Z,6.17
2018-06-24T05:00:00.679Z,6.00
2018-06-24T05:02:28.910Z,6.33
2018-06-24T05:04:57.135Z,6.25
2018-06-24T05:07:25.403Z,5.62
2018-06-24T05:09:53.707Z,5.92
2018-06-24T05:12:21.753Z,6.50
2018-06-24T05:14:50.070Z,5.97
2018-06-24T05:17:18.292Z,5.70
2018-06-24T05:19:46.611Z,5.90
2018-06-24T05:22:14.839Z,5.50
2018-06-24T05:24:43.082Z,5.60
2018-06-24T05:27:11.335Z,5.30
2018-06-24T05:29:39.589Z,5.80
2018-06-24T05:32:07.923Z,4.72
2018-06-24T05:34:36.197Z,5.00
2018-06-24T05:37:04.451Z,4.85
2018-06-24T05:39:32.721Z,4.60
2018-06-24T05:42:00.960Z,4.47
2018-06-24T05:44:28.954Z,5.60
2018-06-24T05:46:57.627Z,4.78
2018-06-24T05:49:25.955Z,4.70
2018-06-24T05:51:54.298Z,4.90
2018-06-24T05:54:22.575Z,4.95
2018-06-24T05:56:50.795Z,4.60
2018-06-24T05:59:19.076Z,4.47
2018-06-24T06:01:47.317Z,5.30
2018-06-24T06:04:15.618Z,5.20
2018-06-24T06:06:43.893Z,5.03
2018-06-24T06:09:12.887Z,4.95
2018-06-24T06:11:41.294Z,5.80
2018-06-24T06:14:09.535Z,5.00
2018-06-24T06:16:37.832Z,4.80
2018-06-24T06:19:06.173Z,4.80
2018-06-24T06:21:34.421Z,3.90
2018-06-24T06:24:02.629Z,4.23
2018-06-24T06:26:30.903Z,4.37
2018-06-24T06:28:59.150Z,4.00
2018-06-24T06:31:27.373Z,4.72
2018-06-24T06:33:55.609Z,4.60
2018-06-24T06:36:23.813Z,4.70
2018-06-24T06:38:52.037Z,4.00
2018-06-24T06:41:20.372Z,5.30
2018-06-24T06:43:48.611Z,4.57
2018-06-24T06:46:16.848Z,4.30
2018-06-24T06:48:45.102Z,4.50
2018-06-24T06:51:13.326Z,4.30
2018-06-24T06:53:41.627Z,4.40
2018-06-24T06:56:09.835Z,3.60
2018-06-24T06:58:38.426Z,3.57
2018-06-24T07:01:06.700Z,4.30
2018-06-24T07:03:35.004Z,4.63
2018-06-24T07:06:03.250Z,4.20
2018-06-24T07:08:31.569Z,4.40
2018-06-24T07:10:59.784Z,3.83
2018-06-24T07:13:28.007Z,3.50
2018-06-24T07:15:56.299Z,4.93
2018-06-24T07:18:24.727Z,4.50
2018-06-24T07:20:52.674Z,4.23
2018-06-24T07:23:20.917Z,4.00
2018-06-24T07:25:49.161Z,4.27
2018-06-24T07:28:17.426Z,4.27
2018-06-24T07:30:47.123Z,3.80
2018-06-24T07:33:15.839Z,4.47
2018-06-24T07:35:44.039Z,3.97
2018-06-24T07:38:12.283Z,3.30
2018-06-24T07:40:40.516Z,3.50
2018-06-24T07:43:08.812Z,4.10
2018-06-24T07:45:37.032Z,3.30
2018-06-24T07:48:05.265Z,3.87
2018-06-24T07:50:33.491Z,3.30
2018-06-24T07:53:01.742Z,3.90
2018-06-24T07:55:30.063Z,4.07
2018-06-24T07:57:58.325Z,4.03
2018-06-24T08:00:26.545Z,2.90
2018-06-24T08:02:54.754Z,3.30
2018-06-24T08:05:23.026Z,3.10
2018-06-24T08:07:51.254Z,3.53
2018-06-24T08:10:19.543Z,3.07
2018-06-24T08:12:47.786Z,2.93
2018-06-24T08:15:16.005Z,3.57
2018-06-24T08:17:44.256Z,3.80
2018-06-24T08:20:12.534Z,3.60
2018-06-24T08:22:40.808Z,3.00
2018-06-24T08:25:08.753Z,3.70
2018-06-24T08:27:36.991Z,3.90
2018-06-24T08:30:05.268Z,3.40
2018-06-24T08:32:33.589Z,3.70
2018-06-24T08:35:02.184Z,3.63
2018-06-24T08:37:30.399Z,3.20
2018-06-24T08:39:58.609Z,3.50
2018-06-24T08:42:26.968Z,3.60
2018-06-24T08:44:55.213Z,3.40
2018-06-24T08:47:23.484Z,3.20
2018-06-24T08:49:51.708Z,3.83
2018-06-24T08:52:19.956Z,4.10
2018-06-24T08:54:48.201Z,3.30
2018-06-24T08:57:16.435Z,3.07
2018-06-24T08:59:44.671Z,3.50
2018-06-24T09:02:19.538Z,3.50
2018-06-24T09:04:47.776Z,3.70
2018-06-24T09:07:16.024Z,3.60
2018-06-24T09:09:44.255Z,3.53
2018-06-24T09:12:12.524Z,3.60
2018-06-24T09:14:40.780Z,3.20
2018-06-24T09:17:09.062Z,3.10
2018-06-24T09:19:37.300Z,3.65
2018-06-24T09:22:05.613Z,4.50
2018-06-24T09:24:33.821Z,3.42
2018-06-24T09:27:01.759Z,3.57
2018-06-24T09:29:29.996Z,7.17
2018-06-24T09:31:58.241Z,4.15
2018-06-24T09:34:26.517Z,3.40
2018-06-24T09:36:54.723Z,3.30
2018-06-24T09:39:22.977Z,3.17
2018-06-24T09:41:51.214Z,3.53
2018-06-24T09:44:19.467Z,3.70
2018-06-24T09:46:47.690Z,3.40
2018-06-24T09:49:15.925Z,3.30
2018-06-24T09:51:44.154Z,3.60
2018-06-24T09:54:12.383Z,3.70
2018-06-24T09:56:40.618Z,4.30
2018-06-24T09:59:08.901Z,2.80
2018-06-24T10:01:37.334Z,3.77
2018-06-24T10:04:05.831Z,7.57
2018-06-24T10:06:34.087Z,2.90
2018-06-24T10:09:02.331Z,4.00
2018-06-24T10:11:30.652Z,2.90
2018-06-24T10:13:58.894Z,4.17
2018-06-24T10:16:27.162Z,5.80
2018-06-24T10:18:55.183Z,3.17
2018-06-24T10:21:23.878Z,3.37
2018-06-24T10:23:52.126Z,3.40
2018-06-24T10:26:20.322Z,3.30
2018-06-24T10:28:48.563Z,2.80
2018-06-24T10:31:16.788Z,2.93
2018-06-24T10:33:45.004Z,3.10
2018-06-24T10:36:13.294Z,3.83
2018-06-24T10:38:41.518Z,4.60
2018-06-24T10:41:10.081Z,3.37
2018-06-24T10:43:38.014Z,3.20
2018-06-24T10:46:06.283Z,3.17
2018-06-24T10:48:34.488Z,3.60
2018-06-24T10:51:02.880Z,3.90
2018-06-24T10:53:31.125Z,3.50
2018-06-24T10:55:59.488Z,4.10
2018-06-24T10:58:27.733Z,3.70
2018-06-24T11:00:55.930Z,4.00
2018-06-24T11:03:24.177Z,4.60
2018-06-24T11:05:52.510Z,4.57
2018-06-24T11:08:20.759Z,4.53
2018-06-24T11:10:48.998Z,4.20
2018-06-24T11:13:17.262Z,4.27
2018-06-24T11:15:45.510Z,3.50
2018-06-24T11:18:13.734Z,4.07
2018-06-24T11:20:42.030Z,4.03
2018-06-24T11:23:10.316Z,5.00
2018-06-24T11:25:38.578Z,4.40
2018-06-24T11:28:07.026Z,3.90
2018-06-24T11:30:35.232Z,3.80
2018-06-24T11:33:03.496Z,4.73
2018-06-24T11:35:31.461Z,4.27
2018-06-24T11:37:59.699Z,4.47
2018-06-24T11:40:27.976Z,3.70
2018-06-24T11:42:56.195Z,4.10
2018-06-24T11:45:24.425Z,4.03
2018-06-24T11:47:52.673Z,4.27
2018-06-24T11:50:20.869Z,4.37
2018-06-24T11:52:49.079Z,4.00
2018-06-24T11:55:17.310Z,4.20
2018-06-24T11:57:45.527Z,4.40
2018-06-24T12:00:13.782Z,4.40
2018-06-24T12:02:42.185Z,3.50
2018-06-24T12:05:10.349Z,3.50
2018-06-24T12:07:38.314Z,3.77
2018-06-24T12:10:06.315Z,3.30
2018-06-24T12:15:25.227Z,3.63
2018-06-24T12:17:53.492Z,3.50
2018-06-24T12:20:21.814Z,3.20
2018-06-24T12:22:50.207Z,3.83
2018-06-24T12:25:18.488Z,3.23
2018-06-24T12:27:46.761Z,3.07
2018-06-24T12:30:15.010Z,2.80
2018-06-24T12:32:43.362Z,3.03
2018-06-24T12:35:11.670Z,3.30
2018-06-24T12:37:40.006Z,2.43
2018-06-24T12:40:08.269Z,2.77
2018-06-24T12:42:36.565Z,2.93
2018-06-24T12:45:05.194Z,2.50
2018-06-24T12:47:33.486Z,2.67
2018-06-24T12:50:01.758Z,2.70
2018-06-24T12:52:30.034Z,2.40
2018-06-24T12:54:58.335Z,3.53
2018-06-24T12:57:26.616Z,3.67
2018-06-24T12:59:54.862Z,3.33
2018-06-24T13:02:22.917Z,3.80
2018-06-24T13:04:51.207Z,3.80
2018-06-24T13:07:19.520Z,3.60
2018-06-24T13:09:47.794Z,4.30
2018-06-24T13:12:16.113Z,4.08
2018-06-24T13:14:44.374Z,4.50
2018-06-24T13:17:12.682Z,4.40
2018-06-24T13:19:40.998Z,4.10
2018-06-24T13:22:09.351Z,3.83
2018-06-24T13:24:37.651Z,3.90
2018-06-24T13:27:05.962Z,3.80
2018-06-24T13:29:34.251Z,4.08
2018-06-24T13:32:02.586Z,4.03
2018-06-24T13:34:30.880Z,4.00
2018-06-24T13:36:59.180Z,4.20
2018-06-24T13:39:27.605Z,3.95
2018-06-24T13:41:55.910Z,3.70
2018-06-24T13:44:24.185Z,3.73
2018-06-24T13:46:52.438Z,2.90
2018-06-24T13:49:20.779Z,3.73
2018-06-24T13:51:49.015Z,3.90
2018-06-24T13:54:17.299Z,3.83
2018-06-24T13:56:45.582Z,3.80
2018-06-24T13:59:13.845Z,3.93
2018-06-24T14:01:41.963Z,4.33
2018-06-24T14:04:10.276Z,4.00
2018-06-24T14:06:38.559Z,4.20
2018-06-24T14:09:09.374Z,4.47
2018-06-24T14:11:37.756Z,3.63
2018-06-24T14:14:06.002Z,3.90
2018-06-24T14:16:34.245Z,3.90
2018-06-24T14:19:02.497Z,4.07
2018-06-24T14:21:30.462Z,3.70
2018-06-24T14:23:58.807Z,3.40
2018-06-24T14:26:27.030Z,3.10
2018-06-24T14:28:55.269Z,4.10
2018-06-24T14:31:23.476Z,3.77
2018-06-24T14:33:51.702Z,3.70
2018-06-24T14:36:19.931Z,3.50
2018-06-24T14:38:48.185Z,4.03
2018-06-24T14:41:16.434Z,3.53
2018-06-24T14:43:44.675Z,3.47
2018-06-24T14:46:12.696Z,3.53
2018-06-24T14:48:40.979Z,3.57
2018-06-24T14:51:09.266Z,4.00
2018-06-24T14:53:37.494Z,4.03
2018-06-24T14:56:05.703Z,4.27
2018-06-24T14:58:33.952Z,4.17
2018-06-24T15:01:02.180Z,4.97
2018-06-24T15:03:30.412Z,4.73
2018-06-24T15:05:58.654Z,4.47
2018-06-24T15:08:26.914Z,5.17
2018-06-24T15:10:55.182Z,4.83
2018-06-24T15:13:23.388Z,5.20
2018-06-24T15:15:51.627Z,6.00
2018-06-24T15:18:19.885Z,5.40
2018-06-24T15:20:48.129Z,4.73
2018-06-24T15:23:16.338Z,5.07
2018-06-24T15:25:44.566Z,4.70
2018-06-24T15:28:12.556Z,5.23
2018-06-24T15:30:40.807Z,5.17
2018-06-24T15:33:09.022Z,5.00
2018-06-24T15:35:37.263Z,5.30
2018-06-24T15:38:05.785Z,4.90
2018-06-24T15:40:34.001Z,5.30
2018-06-24T15:43:02.249Z,5.43
2018-06-24T15:45:30.476Z,5.33
2018-06-24T15:47:58.720Z,5.13
2018-06-24T15:50:27.000Z,4.53
2018-06-24T15:52:55.214Z,5.20
2018-06-24T15:55:23.486Z,4.30
2018-06-24T15:57:51.749Z,4.50
2018-06-24T16:00:19.981Z,4.53
2018-06-24T16:02:48.195Z,4.30
2018-06-24T16:05:16.502Z,4.57
2018-06-24T16:15:07.368Z,4.53
2018-06-24T16:17:35.343Z,4.60
2018-06-24T16:20:03.696Z,4.30
2018-06-24T16:22:31.951Z,4.50
2018-06-24T16:25:00.191Z,4.58
2018-06-24T16:27:28.445Z,4.30
2018-06-24T16:29:56.689Z,4.60
2018-06-24T16:32:24.923Z,4.60
2018-06-24T16:34:53.182Z,4.10
2018-06-24T16:37:21.417Z,4.10
2018-06-24T16:39:49.667Z,3.87
2018-06-24T16:42:17.963Z,4.05
2018-06-24T16:44:47.241Z,3.70
2018-06-24T16:47:15.281Z,3.90
2018-06-24T16:49:43.582Z,4.25
2018-06-24T16:52:11.790Z,4.92
2018-06-24T16:54:40.018Z,3.90
2018-06-24T16:57:08.329Z,3.80
2018-06-24T16:59:36.562Z,3.50
2018-06-24T17:02:04.827Z,3.20
2018-06-24T17:04:33.091Z,3.20
2018-06-24T17:07:01.339Z,3.20
2018-06-24T17:09:29.601Z,3.40
2018-06-24T17:11:57.870Z,3.70
2018-06-24T17:14:26.109Z,3.70
2018-06-24T17:16:54.335Z,3.33
2018-06-24T17:19:22.577Z,3.80
2018-06-24T17:21:50.825Z,3.70
2018-06-24T17:24:19.035Z,3.65
2018-06-24T17:26:47.041Z,3.70
2018-06-24T17:29:15.243Z,3.52
2018-06-24T17:31:43.497Z,4.08
2018-06-24T17:34:11.741Z,4.50
2018-06-24T17:36:39.995Z,4.50
2018-06-24T17:39:09.997Z,4.83
2018-06-24T17:41:38.001Z,4.60
2018-06-24T17:44:06.266Z,5.60
2018-06-24T17:46:34.376Z,4.58
2018-06-24T17:49:02.623Z,4.67
2018-06-24T17:51:30.897Z,4.87
2018-06-24T17:53:59.154Z,4.50
2018-06-24T17:56:27.418Z,4.50
2018-06-24T17:58:55.704Z,4.47
2018-06-24T18:01:23.941Z,4.50
2018-06-24T18:03:52.222Z,4.80
2018-06-24T18:06:20.427Z,4.50
2018-06-24T18:08:48.677Z,4.60
2018-06-24T18:11:16.918Z,4.50
2018-06-24T18:13:45.139Z,5.00
2018-06-24T18:16:13.375Z,4.20
2018-06-24T18:18:41.662Z,4.80
2018-06-24T18:21:09.883Z,5.15
2018-06-24T18:23:38.138Z,5.40
2018-06-24T18:26:06.397Z,5.40
2018-06-24T18:28:34.607Z,5.10
2018-06-24T18:31:02.881Z,4.90
2018-06-24T18:33:31.107Z,5.30
2018-06-24T18:35:59.346Z,5.00
2018-06-24T18:38:27.703Z,4.90
2018-06-24T18:40:55.906Z,5.70
2018-06-24T18:43:24.165Z,5.30
2018-06-24T18:45:52.438Z,5.25
2018-06-24T18:48:21.059Z,5.00
2018-06-24T18:50:49.347Z,5.50
2018-06-24T18:53:17.631Z,5.40
2018-06-24T18:55:51.856Z,5.30
2018-06-24T18:58:20.400Z,5.00
2018-06-24T19:00:48.647Z,4.42
2018-06-24T19:03:16.947Z,4.00
2018-06-24T19:05:45.444Z,3.60
2018-06-24T19:08:13.683Z,3.72
2018-06-24T19:10:41.943Z,3.95
2018-06-24T19:13:10.241Z,3.60
2018-06-24T19:15:38.513Z,3.55
2018-06-24T19:18:07.410Z,3.55
2018-06-24T19:20:35.682Z,3.65
2018-06-24T19:23:03.923Z,3.30
2018-06-24T19:25:32.194Z,3.40
2018-06-24T19:28:00.450Z,3.25
2018-06-24T19:30:28.742Z,3.20
2018-06-24T19:32:56.698Z,3.50
2018-06-24T19:35:24.975Z,3.15
2018-06-24T19:37:53.279Z,3.20
2018-06-24T19:40:21.562Z,3.30
2018-06-24T19:42:49.785Z,3.00
2018-06-24T19:45:18.067Z,3.20
2018-06-24T19:47:46.288Z,3.30
2018-06-24T19:50:14.564Z,3.20
2018-06-24T19:55:33.701Z,3.10
2018-06-24T19:58:02.008Z,3.10
2018-06-24T20:00:30.316Z,3.45
2018-06-24T20:02:58.612Z,3.00
2018-06-24T20:05:26.862Z,3.30
2018-06-24T20:07:55.175Z,3.33
2018-06-24T20:10:23.175Z,3.10
2018-06-24T20:12:51.379Z,3.02
2018-06-24T20:15:19.886Z,2.98
2018-06-24T20:17:48.146Z,3.30
2018-06-24T20:20:16.467Z,3.10
2018-06-24T20:25:19.450Z,3.00
2018-06-24T20:27:47.469Z,3.10
2018-06-24T20:30:15.694Z,3.20
2018-06-24T20:32:44.213Z,2.90
2018-06-24T20:35:12.283Z,3.20
2018-06-24T20:37:40.562Z,2.70
2018-06-24T20:40:08.913Z,2.98
2018-06-24T20:42:37.193Z,2.92
2018-06-24T20:45:05.870Z,2.77
2018-06-24T20:47:34.112Z,2.90
2018-06-24T20:50:02.557Z,2.90
2018-06-24T20:52:30.909Z,3.20
2018-06-24T20:54:59.227Z,2.90
2018-06-24T20:57:27.536Z,3.10
2018-06-24T20:59:55.803Z,2.70
2018-06-24T21:02:24.097Z,3.40
2018-06-24T21:04:52.365Z,3.00
2018-06-24T21:07:20.433Z,2.83
2018-06-24T21:09:48.675Z,3.00
2018-06-24T21:12:16.915Z,3.37
2018-06-24T21:14:45.174Z,3.42
2018-06-24T21:17:13.442Z,3.40
2018-06-24T21:19:41.851Z,3.37
2018-06-24T21:22:10.151Z,3.33
2018-06-24T21:24:39.551Z,3.60
2018-06-24T21:27:08.933Z,3.42
2018-06-24T21:29:37.413Z,3.30
2018-06-24T21:32:05.380Z,3.40
2018-06-24T21:34:33.358Z,3.80
2018-06-24T21:37:01.631Z,3.50
2018-06-24T21:39:29.896Z,3.40
2018-06-24T21:41:58.231Z,3.70
2018-06-24T21:44:26.934Z,3.83
2018-06-24T21:46:55.192Z,3.67
2018-06-24T21:49:23.624Z,3.83
2018-06-24T21:51:52.660Z,4.17
2018-06-24T21:54:20.925Z,4.20
2018-06-24T21:56:49.159Z,4.40
2018-06-24T21:59:17.463Z,3.98
2018-06-24T22:01:45.695Z,3.83
2018-06-24T22:04:13.915Z,4.08
2018-06-24T22:06:42.173Z,4.55
2018-06-24T22:09:11.765Z,4.50
2018-06-24T22:11:40.046Z,5.00
2018-06-24T22:14:09.203Z,4.60
2018-06-24T22:16:37.751Z,5.00
2018-06-24T22:19:06.069Z,5.03
2018-06-24T22:21:34.320Z,5.00
2018-06-24T22:24:02.555Z,5.50
2018-06-24T22:26:30.767Z,5.00
2018-06-24T22:28:59.002Z,5.42
2018-06-24T22:31:27.365Z,5.90
2018-06-24T22:33:55.661Z,5.30
2018-06-24T22:36:23.914Z,5.50
2018-06-24T22:38:52.173Z,5.35
2018-06-24T22:41:20.504Z,5.50
2018-06-24T22:43:48.735Z,5.70
2018-06-24T22:46:16.957Z,6.30
2018-06-24T22:48:45.205Z,6.75
2018-06-24T22:51:13.196Z,5.72
2018-06-24T22:53:41.458Z,6.40
2018-06-24T22:56:09.754Z,5.83
2018-06-24T22:58:37.991Z,6.00
2018-06-24T23:01:06.315Z,6.17
2018-06-24T23:03:34.526Z,6.37
2018-06-24T23:06:02.762Z,6.10
2018-06-24T23:08:30.995Z,5.90
2018-06-24T23:10:58.994Z,5.60
2018-06-24T23:13:27.274Z,6.30
2018-06-24T23:15:55.242Z,6.20
2018-06-24T23:18:23.464Z,5.47
2018-06-24T23:20:51.715Z,6.40
2018-06-24T23:23:19.971Z,6.08
2018-06-24T23:25:48.224Z,5.70
2018-06-24T23:28:16.451Z,6.00
2018-06-24T23:30:44.714Z,6.10
2018-06-24T23:33:12.966Z,5.80
2018-06-24T23:35:41.235Z,5.70
2018-06-24T23:38:09.487Z,5.80
2018-06-24T23:40:37.738Z,5.80
2018-06-24T23:43:06.617Z,6.40
2018-06-24T23:45:34.891Z,5.90
2018-06-24T23:48:03.095Z,5.67
2018-06-24T23:50:31.350Z,5.78
2018-06-24T23:52:59.575Z,5.50
2018-06-24T23:55:27.819Z,5.50
2018-06-24T23:57:56.053Z,5.00
